Time;durP1;ratioP1;P1;durP2;ratioP2;P2;SDS_P1;SDS_P2;PMS_P1;PMS_P2;Temp;Humidity;BMP_temperature;BMP_pressure;BME280_temperature;BME280_humidity;BME280_pressure;Samples;Min_cycle;Max_cycle;Signal;HPM_P1;HPM_P2
2023/10/06 03:56:49;;;;;;;4.15;2.62;;;;;;;11.79;100.00;101298.31;5767106;27;20228;-83
2023/10/06 03:59:53;;;;;;;;;;;;;;;11.72;100.00;101299.13;5403718;32;33268;-83
2023/10/06 04:02:58;;;;;;;7.18;2.65;;;;;;;11.74;100.00;101297.13;5416170;32;33767;-83
2023/10/06 04:06:03;;;;;;;5.25;2.87;;;;;;;11.69;100.00;101294.87;5391536;32;33815;-83
2023/10/06 04:09:08;;;;;;;7.07;3.17;;;;;;;11.65;100.00;101296.25;5415943;32;33359;-83
2023/10/06 04:12:12;;;;;;;6.68;3.22;;;;;;;11.66;100.00;101299.78;5403654;32;33907;-83
2023/10/06 04:15:14;;;;;;;6.97;2.87;;;;;;;11.58;100.00;101300.56;5394467;32;34034;-83
2023/10/06 04:18:22;;;;;;;6.62;2.87;;;;;;;11.62;100.00;101309.22;5418207;32;33751;-83
2023/10/06 04:21:25;;;;;;;4.07;2.75;;;;;;;11.62;100.00;101310.06;5418958;32;33474;-82
2023/10/06 04:24:29;;;;;;;4.22;2.72;;;;;;;11.68;100.00;101311.25;5393707;32;33862;-83
2023/10/06 04:27:32;;;;;;;7.10;2.75;;;;;;;11.69;100.00;101313.78;5402709;32;33345;-83
2023/10/06 04:30:37;;;;;;;5.43;2.83;;;;;;;11.68;100.00;101320.19;5416210;32;32812;-83
2023/10/06 04:33:40;;;;;;;9.52;3.00;;;;;;;11.72;100.00;101316.16;5406971;32;33335;-83
2023/10/06 04:36:43;;;;;;;5.30;3.22;;;;;;;11.73;100.00;101311.63;5394356;32;33376;-83
2023/10/06 04:39:46;;;;;;;5.50;3.08;;;;;;;11.73;100.00;101314.31;5402677;32;33470;-83
2023/10/06 04:42:49;;;;;;;8.75;3.50;;;;;;;11.77;100.00;101321.91;5389944;32;33199;-83
2023/10/06 04:45:54;;;;;;;7.22;3.20;;;;;;;11.79;100.00;101327.16;5390032;32;33073;-82
2023/10/06 04:48:58;;;;;;;8.75;3.37;;;;;;;11.78;100.00;101325.44;5390588;32;33344;-83
2023/10/06 04:52:01;;;;;;;7.25;3.10;;;;;;;11.76;100.00;101322.94;5401566;32;33238;-83
2023/10/06 04:55:05;;;;;;;7.45;2.85;;;;;;;11.80;100.00;101324.28;5383304;33;33515;-83
2023/10/06 04:58:10;;;;;;;6.60;3.03;;;;;;;11.82;100.00;101321.44;5400712;32;33284;-83
2023/10/06 05:01:15;;;;;;;6.32;3.33;;;;;;;11.81;100.00;101325.13;5397127;33;33299;-83
2023/10/06 05:04:19;;;;;;;8.13;2.95;;;;;;;11.84;100.00;101332.88;5397301;32;34181;-83
2023/10/06 05:07:24;;;;;;;7.22;3.12;;;;;;;11.85;100.00;101337.31;5393694;33;33002;-83
2023/10/06 05:10:27;;;;;;;5.72;2.85;;;;;;;11.90;100.00;101334.97;5391249;32;33216;-83
2023/10/06 05:13:30;;;;;;;11.27;3.00;;;;;;;11.96;100.00;101349.66;5401784;32;33037;-82
2023/10/06 05:16:34;;;;;;;10.13;3.50;;;;;;;11.95;100.00;101353.38;5402204;32;33862;-82
2023/10/06 05:19:38;;;;;;;8.50;3.97;;;;;;;12.05;100.00;101358.63;5384263;32;33091;-87
2023/10/06 05:22:41;;;;;;;6.37;3.00;;;;;;;12.05;100.00;101354.09;5396572;32;33458;-87
2023/10/06 05:25:44;;;;;;;7.30;3.53;;;;;;;12.08;100.00;101361.88;5400655;32;33081;-87
2023/10/06 05:28:47;;;;;;;6.62;3.17;;;;;;;12.03;100.00;101367.75;5383522;33;33023;-83
2023/10/06 05:31:51;;;;;;;8.68;3.33;;;;;;;12.05;100.00;101373.00;5383794;33;34116;-83
2023/10/06 05:34:56;;;;;;;18.87;3.92;;;;;;;12.10;100.00;101380.59;5396755;33;33449;-83
2023/10/06 05:38:00;;;;;;;4.25;2.90;;;;;;;12.10;100.00;101378.72;5372202;33;33947;-83
2023/10/06 05:41:05;;;;;;;6.80;3.03;;;;;;;12.19;100.00;101379.59;5389197;32;33857;-83
2023/10/06 05:44:08;;;;;;;4.53;3.20;;;;;;;12.18;100.00;101380.62;5400157;32;32929;-83
2023/10/06 05:47:14;;;;;;;5.70;3.28;;;;;;;12.21;100.00;101383.00;5401325;32;33504;-83
2023/10/06 05:50:27;;;;;;;7.00;3.00;;;;;;;12.25;100.00;101385.22;5398380;32;34625;-83
2023/10/06 05:53:38;;;;;;;10.55;3.80;;;;;;;12.33;100.00;101395.19;5385332;32;33207;-83
2023/10/06 05:56:45;;;;;;;6.80;3.33;;;;;;;12.41;100.00;101397.06;5393855;32;33034;-83
2023/10/06 05:59:48;;;;;;;6.75;3.00;;;;;;;12.51;99.16;101403.16;5402101;32;33879;-83
2023/10/06 06:02:53;;;;;;;8.10;3.40;;;;;;;12.66;98.51;101408.75;5389961;33;33452;-82
2023/10/06 06:06:08;;;;;;;12.82;3.97;;;;;;;12.64;97.53;101410.78;5413953;32;33724;-83
2023/10/06 06:09:14;;;;;;;7.78;3.25;;;;;;;12.64;97.46;101414.34;5398413;32;33124;-83
2023/10/06 06:12:21;;;;;;;7.35;3.00;;;;;;;12.68;98.57;101415.69;5387475;32;33384;-83
2023/10/06 06:15:25;;;;;;;7.72;3.28;;;;;;;12.70;96.97;101405.56;5409758;32;32890;-83
2023/10/06 06:18:30;;;;;;;7.97;3.60;;;;;;;12.74;96.64;101411.47;5388221;32;33268;-83
2023/10/06 06:21:34;;;;;;;5.00;2.90;;;;;;;12.75;97.42;101409.63;5396531;32;33281;-81
2023/10/06 06:24:38;;;;;;;7.60;3.17;;;;;;;12.79;95.89;101411.81;5398138;32;33565;-82
2023/10/06 06:27:42;;;;;;;10.02;3.67;;;;;;;12.77;96.83;101419.25;5400836;32;33792;-82
2023/10/06 06:30:47;;;;;;;13.68;3.97;;;;;;;12.83;96.47;101426.69;5397257;32;34103;-82
2023/10/06 06:33:56;;;;;;;9.57;3.97;;;;;;;12.87;96.27;101419.06;5384912;32;32963;-82
2023/10/06 06:37:00;;;;;;;20.65;4.70;;;;;;;12.94;95.13;101429.06;5388957;32;32955;-82
2023/10/06 06:40:06;;;;;;;10.43;4.18;;;;;;;12.97;95.09;101422.47;5400032;32;33394;-81
2023/10/06 06:43:11;;;;;;;7.50;3.62;;;;;;;13.09;94.19;101433.81;5379236;32;34230;-82
2023/10/06 06:46:16;;;;;;;10.90;3.70;;;;;;;13.12;93.55;101431.59;5406598;32;33491;-81
2023/10/06 06:49:20;;;;;;;8.32;3.83;;;;;;;13.18;93.48;101443.59;5391228;32;33489;-86
2023/10/06 06:52:23;;;;;;;14.02;3.75;;;;;;;13.16;93.50;101442.91;5409436;32;33458;-86
2023/10/06 06:55:26;;;;;;;6.97;3.50;;;;;;;13.06;93.67;101447.66;5389561;32;34267;-86
2023/10/06 06:58:29;;;;;;;7.12;3.12;;;;;;;13.09;94.39;101461.69;5387736;32;33842;-82
2023/10/06 07:01:33;;;;;;;13.45;3.80;;;;;;;13.10;94.66;101467.94;5393907;32;33245;-82
2023/10/06 07:04:36;;;;;;;15.25;4.55;;;;;;;13.14;95.23;101477.41;5402465;32;33969;-82
2023/10/06 07:07:43;;;;;;;10.95;3.87;;;;;;;13.20;93.66;101482.16;5388830;32;33303;-82
2023/10/06 07:10:52;;;;;;;11.18;4.00;;;;;;;13.36;91.88;101475.91;5398206;32;32814;-81
2023/10/06 07:13:56;;;;;;;7.28;3.40;;;;;;;13.70;89.79;101477.59;5397180;32;34143;-82
2023/10/06 07:17:00;;;;;;;8.10;3.55;;;;;;;13.97;87.44;101477.19;5400391;32;33359;-82
2023/10/06 07:20:04;;;;;;;7.75;3.12;;;;;;;14.27;85.74;101489.16;5387918;32;34836;-82
2023/10/06 07:23:06;;;;;;;12.77;3.60;;;;;;;14.46;82.72;101484.31;5402492;32;33508;-82
2023/10/06 07:26:11;;;;;;;11.32;3.53;;;;;;;14.62;81.05;101480.72;5399895;32;33593;-82
2023/10/06 07:29:15;;;;;;;5.20;3.20;;;;;;;14.81;79.72;101488.41;5391130;32;31968;-81
2023/10/06 07:32:18;;;;;;;7.50;3.08;;;;;;;14.97;78.50;101490.16;5375973;32;34053;-82
2023/10/06 07:35:31;;;;;;;9.57;3.53;;;;;;;15.10;77.88;101495.00;5382795;32;33271;-82
2023/10/06 07:38:35;;;;;;;5.65;2.90;;;;;;;15.34;77.08;101492.09;5409015;32;33003;-84
2023/10/06 07:41:37;;;;;;;7.43;3.45;;;;;;;15.44;76.10;101491.84;5393830;33;33425;-84
2023/10/06 07:44:41;;;;;;;9.07;3.40;;;;;;;15.71;74.76;101497.78;5388454;32;32852;-85
2023/10/06 07:47:44;;;;;;;5.00;2.70;;;;;;;15.75;75.05;101493.66;5420297;32;33443;-84
2023/10/06 07:50:49;;;;;;;13.48;3.58;;;;;;;15.88;73.35;101496.56;5406235;32;33792;-84
2023/10/06 07:53:52;;;;;;;6.85;3.42;;;;;;;16.08;73.02;101494.13;5413603;32;34264;-83
2023/10/06 07:56:56;;;;;;;8.13;3.33;;;;;;;16.06;73.16;101498.94;5388279;32;33400;-84
2023/10/06 08:00:04;;;;;;;9.73;3.30;;;;;;;16.07;72.39;101492.47;5394464;32;34126;-84
2023/10/06 08:03:13;;;;;;;6.85;2.80;;;;;;;16.17;72.30;101500.31;5385358;32;33429;-84
2023/10/06 08:06:16;;;;;;;6.28;3.05;;;;;;;16.28;70.57;101505.31;5386821;32;34230;-84
2023/10/06 08:09:21;;;;;;;7.28;2.83;;;;;;;16.29;71.02;101498.81;5393497;32;33884;-85
2023/10/06 08:12:27;;;;;;;7.03;3.37;;;;;;;16.52;69.07;101501.44;5372712;32;32999;-85
2023/10/06 08:15:32;;;;;;;8.10;3.72;;;;;;;16.54;68.52;101500.22;5408883;32;33375;-85
2023/10/06 08:18:35;;;;;;;7.65;3.15;;;;;;;16.78;68.21;101509.94;5414860;32;33916;-85
2023/10/06 08:21:38;;;;;;;7.03;2.80;;;;;;;16.74;67.79;101507.78;5388036;32;33815;-84
2023/10/06 08:24:43;;;;;;;5.80;2.85;;;;;;;17.10;66.78;101507.81;5387613;32;33843;-85
2023/10/06 08:27:48;;;;;;;9.60;2.97;;;;;;;17.35;67.44;101508.28;5392569;32;34680;-85
2023/10/06 08:30:52;;;;;;;8.32;3.15;;;;;;;17.45;63.65;101513.38;5403398;32;33155;-85
2023/10/06 08:33:57;;;;;;;7.00;2.53;;;;;;;17.51;63.87;101518.03;5405103;32;32935;-89
2023/10/06 08:37:06;;;;;;;8.75;3.00;;;;;;;17.74;63.11;101516.97;5378094;32;33134;-89
2023/10/06 08:40:16;;;;;;;7.03;2.80;;;;;;;17.82;60.47;101512.25;5379032;32;34307;-85
2023/10/06 08:43:26;;;;;;;7.93;2.80;;;;;;;17.78;60.12;101521.03;5401949;32;33012;-85
2023/10/06 08:46:34;;;;;;;6.90;3.72;;;;;;;18.16;61.16;101517.94;5406239;32;34044;-85
2023/10/06 08:49:40;;;;;;;7.45;3.03;;;;;;;18.29;57.81;101518.03;5396907;32;33183;-84
2023/10/06 08:52:45;;;;;;;14.98;3.90;;;;;;;18.38;58.02;101524.16;5405498;32;33329;-85
2023/10/06 08:55:49;;;;;;;7.72;3.08;;;;;;;18.64;58.79;101512.53;5402548;32;33162;-85
2023/10/06 08:58:54;;;;;;;7.12;3.15;;;;;;;18.89;56.30;101510.12;5400681;32;33469;-85
2023/10/06 09:01:59;;;;;;;4.53;2.75;;;;;;;18.91;53.24;101516.25;5381522;32;33458;-85
2023/10/06 09:05:03;;;;;;;7.68;2.50;;;;;;;18.80;53.41;101509.47;5401455;32;34719;-84
2023/10/06 09:08:09;;;;;;;7.75;3.22;;;;;;;18.76;52.57;101506.31;5389643;32;33002;-85
2023/10/06 09:11:12;;;;;;;5.87;2.90;;;;;;;18.97;53.28;101501.78;5401489;32;33241;-84
2023/10/06 09:14:16;;;;;;;4.70;2.50;;;;;;;19.06;51.34;101511.44;5380039;32;33421;-85
2023/10/06 09:17:33;;;;;;;7.47;3.20;;;;;;;19.21;52.36;101503.06;5389864;32;33291;-85
2023/10/06 09:20:37;;;;;;;6.55;2.62;;;;;;;19.12;48.81;101509.78;5400875;32;34083;-85
2023/10/06 09:23:40;;;;;;;5.37;2.97;;;;;;;19.31;48.93;101506.25;5399762;32;33445;-85
2023/10/06 09:26:46;;;;;;;9.15;2.58;;;;;;;19.50;48.92;101510.03;5390957;32;32974;-85
2023/10/06 09:29:58;;;;;;;7.22;2.97;;;;;;;19.84;51.53;101517.22;5397116;32;33460;-85
2023/10/06 09:33:03;;;;;;;7.05;2.75;;;;;;;20.00;51.12;101513.22;5387709;32;33187;-85
2023/10/06 09:36:17;;;;;;;5.45;2.25;;;;;;;20.14;49.57;101498.47;5390619;32;33419;-85
2023/10/06 09:39:42;;;;;;;3.90;2.50;;;;;;;20.11;47.63;101496.16;5399044;32;32045;-86
2023/10/06 09:42:48;;;;;;;4.70;2.60;;;;;;;20.36;43.87;101488.09;5380286;32;33116;-86
2023/10/06 09:45:52;;;;;;;5.15;2.90;;;;;;;20.56;44.31;101485.34;5400354;32;33026;-86
2023/10/06 09:48:59;;;;;;;5.32;2.50;;;;;;;20.50;45.02;101490.78;5414397;32;32902;-86
2023/10/06 09:52:03;;;;;;;6.43;3.10;;;;;;;20.60;44.74;101478.34;5419281;32;33019;-85
2023/10/06 09:55:06;;;;;;;6.80;3.35;;;;;;;20.71;42.41;101479.59;5414746;32;34582;-85
2023/10/06 09:58:09;;;;;;;4.68;2.90;;;;;;;20.52;41.45;101472.25;5400969;32;34072;-85
2023/10/06 10:01:14;;;;;;;7.07;2.50;;;;;;;20.38;44.00;101477.78;5396836;32;34276;-85
2023/10/06 10:04:18;;;;;;;6.82;3.08;;;;;;;20.67;43.88;101478.31;5401520;32;34101;-85
2023/10/06 10:07:21;;;;;;;6.30;2.62;;;;;;;20.49;41.72;101473.53;5402239;32;34058;-85
2023/10/06 10:10:27;;;;;;;4.87;2.58;;;;;;;20.70;43.03;101469.66;5395552;32;32967;-85
2023/10/06 10:13:45;;;;;;;6.45;2.83;;;;;;;20.96;41.44;101462.38;5389286;32;34186;-86
2023/10/06 10:17:18;;;;;;;3.47;1.98;;;;;;;21.13;41.41;101462.69;5406335;32;33408;-85
2023/10/06 10:20:25;;;;;;;5.15;2.08;;;;;;;21.47;42.04;101459.50;5396540;33;33433;-85
2023/10/06 10:23:30;;;;;;;4.22;2.53;;;;;;;21.47;43.71;101448.56;5404953;32;33761;-85
2023/10/06 10:26:36;;;;;;;6.95;2.90;;;;;;;21.46;39.06;101440.53;5405345;32;33211;-85
2023/10/06 10:29:41;;;;;;;5.72;2.62;;;;;;;21.36;40.41;101432.84;5419349;32;33432;-85
2023/10/06 10:32:52;;;;;;;6.30;2.62;;;;;;;21.49;40.09;101427.22;5415018;32;33909;-85
2023/10/06 10:36:14;;;;;;;4.72;2.53;;;;;;;21.67;38.89;101428.34;5415788;32;33316;-85
2023/10/06 10:39:18;;;;;;;3.92;2.15;;;;;;;21.78;39.92;101415.78;5416466;32;34226;-85
2023/10/06 10:42:36;;;;;;;4.20;2.35;;;;;;;21.81;42.35;101416.16;5421186;32;33395;-85
2023/10/06 10:45:44;;;;;;;5.03;2.37;;;;;;;21.77;40.41;101419.59;5396221;32;33275;-86
2023/10/06 10:48:48;;;;;;;4.73;2.60;;;;;;;22.02;40.94;101414.03;5414354;32;33204;-85
2023/10/06 10:52:05;;;;;;;4.30;2.40;;;;;;;22.29;37.78;101414.59;5424587;32;33103;-85
2023/10/06 10:55:12;;;;;;;4.90;2.37;;;;;;;21.91;38.35;101410.19;5427982;32;32937;-85
2023/10/06 10:58:50;;;;;;;6.20;2.55;;;;;;;22.28;38.67;101400.03;5409613;32;34525;-85
2023/10/06 11:01:53;;;;;;;4.57;2.03;;;;;;;22.85;38.79;101403.28;5421369;32;33559;-85
2023/10/06 11:04:58;;;;;;;4.53;1.90;;;;;;;23.21;37.51;101408.88;5388474;32;32631;-85
2023/10/06 11:08:02;;;;;;;2.10;1.60;;;;;;;23.05;35.86;101403.00;5415193;32;33358;-84
2023/10/06 11:11:10;;;;;;;3.42;1.98;;;;;;;23.80;35.27;101397.91;5410231;32;33266;-84
2023/10/06 11:14:13;;;;;;;4.07;1.90;;;;;;;24.30;34.59;101391.81;5408950;32;34155;-84
2023/10/06 11:17:29;;;;;;;6.30;2.08;;;;;;;24.83;34.54;101394.25;5398695;32;33137;-84
2023/10/06 11:20:36;;;;;;;4.90;2.17;;;;;;;25.00;35.07;101383.22;5425974;32;33155;-83
2023/10/06 11:23:43;;;;;;;5.20;2.17;;;;;;;25.38;33.47;101384.44;5420696;32;33715;-84
2023/10/06 11:26:47;;;;;;;2.67;1.90;;;;;;;26.05;32.28;101385.41;5414441;32;33815;-83
2023/10/06 11:29:57;;;;;;;2.65;1.40;;;;;;;26.58;31.29;101378.31;5405166;32;33914;-83
2023/10/06 11:33:05;;;;;;;5.00;1.40;;;;;;;27.37;29.86;101378.47;5401804;32;33781;-83
2023/10/06 11:36:08;;;;;;;2.62;1.65;;;;;;;28.09;28.87;101381.69;5406962;32;34178;-83
2023/10/06 11:39:11;;;;;;;7.15;2.03;;;;;;;28.46;28.36;101384.34;5398586;32;33313;-86
2023/10/06 11:42:27;;;;;;;2.97;1.73;;;;;;;28.35;28.20;101385.38;5392278;32;32997;-88
2023/10/06 11:45:32;;;;;;;2.62;1.35;;;;;;;29.72;26.79;101374.62;5424673;32;34569;-84
2023/10/06 11:48:35;;;;;;;2.03;1.30;;;;;;;29.90;26.05;101367.66;5386354;33;32971;-85
2023/10/06 11:51:39;;;;;;;2.35;1.50;;;;;;;31.48;24.73;101363.81;5402666;32;33433;-84
2023/10/06 11:54:42;;;;;;;1.30;1.15;;;;;;;32.84;22.91;101357.84;5385775;32;33271;-84
2023/10/06 11:57:47;;;;;;;3.47;1.37;;;;;;;31.51;24.25;101357.66;5388467;32;33375;-85
2023/10/06 12:00:50;;;;;;;2.97;1.45;;;;;;;30.22;26.08;101351.44;5409077;32;33298;-84
2023/10/06 12:03:59;;;;;;;2.53;1.10;;;;;;;30.09;25.94;101356.72;5413126;32;34427;-84
2023/10/06 12:07:03;;;;;;;2.42;1.20;;;;;;;31.36;24.21;101344.75;5415365;32;33176;-84
2023/10/06 12:10:06;;;;;;;1.80;1.17;;;;;;;33.03;23.61;101324.38;5385161;32;33286;-84
2023/10/06 12:13:10;;;;;;;1.40;1.10;;;;;;;33.48;22.39;101305.09;5385130;32;33250;-85
2023/10/06 12:16:14;;;;;;;3.30;1.27;;;;;;;34.50;21.36;101311.28;5378954;32;34017;-84
2023/10/06 12:19:17;;;;;;;3.03;1.10;;;;;;;35.79;20.66;101309.56;5388924;32;33293;-84
2023/10/06 12:22:20;;;;;;;3.35;1.60;;;;;;;36.24;20.27;101298.09;5408977;32;34407;-84
2023/10/06 12:25:42;;;;;;;2.50;1.30;;;;;;;37.59;18.68;101294.87;5410980;32;32967;-85
2023/10/06 12:28:46;;;;;;;2.25;1.20;;;;;;;38.90;17.51;101291.84;5391055;33;32930;-85
2023/10/06 12:31:49;;;;;;;2.05;1.10;;;;;;;38.94;17.50;101281.56;5384519;32;34105;-85
2023/10/06 12:34:52;;;;;;;2.85;1.40;;;;;;;40.64;15.97;101285.75;5386345;33;33056;-85
2023/10/06 12:37:55;;;;;;;1.98;1.23;;;;;;;40.83;16.00;101285.03;5406830;32;33532;-84
2023/10/06 12:40:59;;;;;;;1.20;1.10;;;;;;;39.04;16.60;101277.44;5405124;32;34185;-85
2023/10/06 12:44:04;;;;;;;2.15;1.20;;;;;;;38.63;17.24;101281.19;5385883;32;33010;-85
2023/10/06 12:47:11;;;;;;;1.27;1.00;;;;;;;39.08;17.11;101274.75;5384875;32;33294;-85
2023/10/06 12:50:20;;;;;;;1.63;1.20;;;;;;;39.99;15.70;101272.53;5390581;32;34051;-85
2023/10/06 12:53:25;;;;;;;2.47;1.15;;;;;;;39.95;15.86;101271.59;5397354;32;33202;-85
2023/10/06 12:56:31;;;;;;;1.80;1.15;;;;;;;38.61;16.84;101272.28;5413354;32;33270;-84
2023/10/06 12:59:34;;;;;;;2.12;1.10;;;;;;;36.36;18.44;101272.19;5394159;32;33365;-84
2023/10/06 13:02:41;;;;;;;2.70;1.00;;;;;;;33.68;20.73;101265.62;5380950;33;33298;-84
2023/10/06 13:05:46;;;;;;;1.25;0.93;;;;;;;32.07;23.18;101267.03;5407553;32;33188;-84
2023/10/06 13:08:50;;;;;;;2.90;1.30;;;;;;;30.02;25.11;101266.22;5400880;32;33221;-84
2023/10/06 13:11:53;;;;;;;1.42;1.00;;;;;;;29.10;27.13;101277.66;5383518;33;32955;-88
2023/10/06 13:14:59;;;;;;;3.20;1.15;;;;;;;28.07;27.92;101278.66;5395623;33;34500;-88
2023/10/06 13:18:03;;;;;;;2.03;1.00;;;;;;;27.75;28.69;101268.56;5398348;32;33088;-88
2023/10/06 13:21:08;;;;;;;2.28;1.15;;;;;;;27.34;28.94;101275.84;5385397;32;33371;-84
2023/10/06 13:24:13;;;;;;;2.25;1.65;;;;;;;26.55;30.55;101280.22;5408562;32;33244;-84
2023/10/06 13:27:15;;;;;;;5.97;1.62;;;;;;;24.84;32.73;101291.25;5400273;32;33481;-84
2023/10/06 13:30:20;;;;;;;3.47;1.30;;;;;;;24.27;33.98;101307.81;5399296;32;33261;-84
2023/10/06 13:33:25;;;;;;;2.97;1.40;;;;;;;23.77;35.05;101297.47;5400161;32;33556;-83
2023/10/06 13:36:29;;;;;;;3.47;1.65;;;;;;;23.68;36.76;101297.00;5388717;32;33070;-84
2023/10/06 13:39:32;;;;;;;1.83;1.40;;;;;;;23.57;36.70;101292.34;5414728;32;33636;-83
2023/10/06 13:42:34;;;;;;;2.87;0.98;;;;;;;23.13;36.81;101285.59;5401411;32;33459;-83
2023/10/06 13:45:48;;;;;;;1.58;1.30;;;;;;;22.72;37.88;101290.06;5399835;32;33261;-82
2023/10/06 13:48:51;;;;;;;3.53;1.20;;;;;;;22.61;38.90;101277.97;5403380;32;32873;-83
2023/10/06 13:51:55;;;;;;;3.05;1.27;;;;;;;22.34;38.72;101266.59;5383158;33;33056;-82
2023/10/06 13:54:58;;;;;;;3.60;1.55;;;;;;;22.30;38.73;101263.47;5390160;32;33998;-82
2023/10/06 13:58:04;;;;;;;2.83;1.30;;;;;;;22.28;39.56;101268.34;5408633;32;33329;-82
2023/10/06 14:01:09;;;;;;;1.98;1.45;;;;;;;22.10;39.68;101261.00;5395921;32;33115;-82
2023/10/06 14:04:12;;;;;;;3.30;1.58;;;;;;;21.88;41.25;101255.19;5402039;32;33612;-82
2023/10/06 14:07:17;;;;;;;5.37;1.50;;;;;;;21.65;42.14;101261.41;5394784;32;33255;-82
2023/10/06 14:10:22;;;;;;;4.05;2.10;;;;;;;21.52;42.44;101254.16;5405500;32;33666;-82
2023/10/06 14:13:28;;;;;;;3.87;1.80;;;;;;;21.27;43.50;101254.22;5402371;32;33341;-82
2023/10/06 14:16:32;;;;;;;3.35;1.90;;;;;;;21.20;43.65;101255.34;5390177;33;33310;-82
2023/10/06 14:19:35;;;;;;;3.30;1.65;;;;;;;21.09;44.36;101247.84;5384263;33;33219;-82
2023/10/06 14:22:38;;;;;;;2.80;1.30;;;;;;;20.98;44.41;101250.28;5378102;32;33214;-82
2023/10/06 14:25:42;;;;;;;3.78;1.33;;;;;;;20.93;44.37;101249.28;5403374;32;33921;-82
2023/10/06 14:28:45;;;;;;;3.00;1.62;;;;;;;20.71;45.71;101243.37;5394369;32;32191;-82
2023/10/06 14:31:58;;;;;;;2.92;1.60;;;;;;;20.60;46.88;101244.97;5395553;32;33461;-83
2023/10/06 14:35:12;;;;;;;1.83;1.40;;;;;;;20.53;45.89;101244.16;5421179;32;33257;-82
2023/10/06 14:48:17;;;;;;;1.75;1.45;;;;;;;20.15;46.15;101237.69;5398439;33;33246;-82
2023/10/06 14:51:20;;;;;;;2.05;1.50;;;;;;;20.13;46.04;101226.13;5385386;33;33496;-82
2023/10/06 14:54:31;;;;;;;1.70;1.33;;;;;;;20.17;46.11;101221.03;5398269;33;34171;-82
2023/10/06 14:57:34;;;;;;;2.15;1.55;;;;;;;20.17;46.75;101221.88;5405905;32;32926;-82
2023/10/06 15:00:37;;;;;;;1.83;1.30;;;;;;;20.16;46.27;101222.09;5390895;32;33464;-82
2023/10/06 15:03:40;;;;;;;2.62;1.92;;;;;;;20.08;47.43;101214.16;5416424;32;32942;-82
2023/10/06 15:06:44;;;;;;;3.47;1.58;;;;;;;20.05;46.65;101218.16;5403118;32;34023;-82
2023/10/06 15:09:49;;;;;;;1.50;1.30;;;;;;;19.98;46.67;101225.59;5402596;32;33874;-82
2023/10/06 15:12:57;;;;;;;3.20;1.27;;;;;;;19.94;46.81;101227.91;5403325;32;34223;-82
2023/10/06 15:16:01;;;;;;;2.20;1.40;;;;;;;19.96;48.04;101227.69;5404267;32;32893;-84
2023/10/06 15:19:07;;;;;;;2.35;1.42;;;;;;;19.93;47.23;101228.97;5398212;32;259112;-84
2023/10/06 15:22:09;;;;;;;5.15;1.60;;;;;;;19.92;47.87;101231.94;5392298;32;33570;-84
2023/10/06 15:25:15;;;;;;;2.47;1.30;;;;;;;19.97;47.20;101229.34;5393545;32;33279;-84
2023/10/06 15:28:20;;;;;;;3.50;1.35;;;;;;;19.85;47.36;101237.41;5403766;32;33437;-84
2023/10/06 15:31:41;;;;;;;2.42;1.52;;;;;;;19.79;47.67;101237.44;5406459;32;33106;-84
2023/10/06 15:34:45;;;;;;;2.72;1.25;;;;;;;19.64;48.67;101233.06;5418736;32;33383;-84
2023/10/06 15:37:48;;;;;;;1.52;1.30;;;;;;;19.59;49.21;101238.34;5389736;32;33529;-84
2023/10/06 15:41:04;;;;;;;3.45;2.00;;;;;;;19.42;50.93;101226.22;5390714;32;33387;-84
2023/10/06 15:44:07;;;;;;;4.00;1.58;;;;;;;19.31;50.40;101218.72;5415560;32;34244;-84
2023/10/06 15:47:12;;;;;;;2.25;1.60;;;;;;;19.23;50.13;101228.81;5390031;32;33242;-84
2023/10/06 15:50:16;;;;;;;2.40;1.33;;;;;;;19.06;50.93;101226.75;5402442;32;33533;-84
2023/10/06 15:53:26;;;;;;;1.85;1.40;;;;;;;18.98;53.26;101225.94;5402957;32;34133;-88
2023/10/06 15:56:33;;;;;;;2.92;1.48;;;;;;;18.82;54.39;101231.00;5415783;32;33420;-84
2023/10/06 15:59:37;;;;;;;2.30;1.60;;;;;;;18.65;55.79;101236.84;5391064;32;33334;-84
2023/10/06 16:02:48;;;;;;;2.92;1.48;;;;;;;18.47;57.79;101242.09;5390904;32;32746;-84
